sensor_id;sensor_type;location;lat;lon;timestamp;pressure;altitude;pressure_sealevel;temperature;humidity
72855;BME280;60991;51.278;22.550;2024-03-06T00:01:24;99264.00;;;8.77;77.67
72855;BME280;60991;51.278;22.550;2024-03-06T00:02:55;99260.31;;;8.78;78.07
72855;BME280;60991;51.278;22.550;2024-03-06T00:04:25;99265.03;;;8.76;77.72
72855;BME280;60991;51.278;22.550;2024-03-06T00:05:55;99258.81;;;8.71;77.64
72855;BME280;60991;51.278;22.550;2024-03-06T00:07:25;99264.56;;;8.67;78.30
72855;BME280;60991;51.278;22.550;2024-03-06T00:08:56;99264.78;;;8.66;78.01
72855;BME280;60991;51.278;22.550;2024-03-06T00:10:26;99266.41;;;8.67;77.92
72855;BME280;60991;51.278;22.550;2024-03-06T00:11:57;99264.34;;;8.69;77.80
72855;BME280;60991;51.278;22.550;2024-03-06T00:13:27;99264.22;;;8.64;78.43
72855;BME280;60991;51.278;22.550;2024-03-06T00:14:57;99265.38;;;8.68;78.53
72855;BME280;60991;51.278;22.550;2024-03-06T00:16:28;99268.03;;;8.68;78.10
72855;BME280;60991;51.278;22.550;2024-03-06T00:17:58;99266.41;;;8.67;78.10
72855;BME280;60991;51.278;22.550;2024-03-06T00:19:28;99269.28;;;8.65;78.29
72855;BME280;60991;51.278;22.550;2024-03-06T00:20:58;99268.25;;;8.66;78.58
72855;BME280;60991;51.278;22.550;2024-03-06T00:22:29;99267.56;;;8.71;77.92
72855;BME280;60991;51.278;22.550;2024-03-06T00:23:59;99272.38;;;8.74;77.94
72855;BME280;60991;51.278;22.550;2024-03-06T00:25:29;99266.75;;;8.71;77.92
72855;BME280;60991;51.278;22.550;2024-03-06T00:26:59;99266.75;;;8.71;77.73
72855;BME280;60991;51.278;22.550;2024-03-06T00:28:30;99272.28;;;8.69;78.10
72855;BME280;60991;51.278;22.550;2024-03-06T00:30:00;99273.91;;;8.70;77.98
72855;BME280;60991;51.278;22.550;2024-03-06T00:31:30;99273.75;;;8.65;77.97
72855;BME280;60991;51.278;22.550;2024-03-06T00:33:00;99273.31;;;8.68;78.32
72855;BME280;60991;51.278;22.550;2024-03-06T00:34:31;99271.91;;;8.65;78.29
72855;BME280;60991;51.278;22.550;2024-03-06T00:36:01;99272.28;;;8.69;78.15
72855;BME280;60991;51.278;22.550;2024-03-06T00:37:31;99271.25;;;8.70;77.90
72855;BME280;60991;51.278;22.550;2024-03-06T00:39:01;99264.13;;;8.71;77.59
72855;BME280;60991;51.278;22.550;2024-03-06T00:40:32;99273.19;;;8.75;77.72
72855;BME280;60991;51.278;22.550;2024-03-06T00:42:02;99275.59;;;8.76;77.45
72855;BME280;60991;51.278;22.550;2024-03-06T00:43:33;99268.25;;;8.78;77.65
72855;BME280;60991;51.278;22.550;2024-03-06T00:45:03;99276.88;;;8.74;77.29
72855;BME280;60991;51.278;22.550;2024-03-06T00:46:34;99263.84;;;8.72;77.63
72855;BME280;60991;51.278;22.550;2024-03-06T00:48:04;99268.34;;;8.60;78.17
72855;BME280;60991;51.278;22.550;2024-03-06T00:49:35;99263.41;;;8.63;77.90
72855;BME280;60991;51.278;22.550;2024-03-06T00:51:05;99267.00;;;8.69;77.55
72855;BME280;60991;51.278;22.550;2024-03-06T00:52:35;99262.59;;;8.63;78.04
72855;BME280;60991;51.278;22.550;2024-03-06T00:54:06;99261.44;;;8.59;78.16
72855;BME280;60991;51.278;22.550;2024-03-06T00:55:36;99263.94;;;8.54;78.05
72855;BME280;60991;51.278;22.550;2024-03-06T00:57:06;99265.09;;;8.58;78.02
72855;BME280;60991;51.278;22.550;2024-03-06T00:58:37;99260.75;;;8.52;77.88
72855;BME280;60991;51.278;22.550;2024-03-06T01:00:07;99263.84;;;8.49;77.73
72855;BME280;60991;51.278;22.550;2024-03-06T01:01:37;99271.63;;;8.44;78.39
72855;BME280;60991;51.278;22.550;2024-03-06T01:03:08;99264.59;;;8.38;77.98
72855;BME280;60991;51.278;22.550;2024-03-06T01:04:38;99272.09;;;8.41;78.40
72855;BME280;60991;51.278;22.550;2024-03-06T01:06:08;99270.38;;;8.35;78.50
72855;BME280;60991;51.278;22.550;2024-03-06T01:07:38;99275.41;;;8.36;78.71
72855;BME280;60991;51.278;22.550;2024-03-06T01:09:09;99277.25;;;8.36;78.02
72855;BME280;60991;51.278;22.550;2024-03-06T01:10:39;99271.94;;;8.36;77.94
72855;BME280;60991;51.278;22.550;2024-03-06T01:12:09;99269.97;;;8.31;78.08
72855;BME280;60991;51.278;22.550;2024-03-06T01:13:40;99281.16;;;8.33;78.18
72855;BME280;60991;51.278;22.550;2024-03-06T01:15:10;99270.09;;;8.36;77.96
72855;BME280;60991;51.278;22.550;2024-03-06T01:16:40;99272.19;;;8.34;78.44
72855;BME280;60991;51.278;22.550;2024-03-06T01:18:11;99274.59;;;8.36;78.14
72855;BME280;60991;51.278;22.550;2024-03-06T01:19:41;99275.41;;;8.36;78.58
72855;BME280;60991;51.278;22.550;2024-03-06T01:21:11;99277.75;;;8.44;77.53
72855;BME280;60991;51.278;22.550;2024-03-06T01:22:42;99272.31;;;8.39;77.84
72855;BME280;60991;51.278;22.550;2024-03-06T01:24:12;99269.31;;;8.36;77.82
72855;BME280;60991;51.278;22.550;2024-03-06T01:25:42;99273.91;;;8.40;77.62
72855;BME280;60991;51.278;22.550;2024-03-06T01:27:12;99272.09;;;8.22;78.24
72855;BME280;60991;51.278;22.550;2024-03-06T01:28:42;99272.63;;;8.31;78.76
72855;BME280;60991;51.278;22.550;2024-03-06T01:30:13;99277.91;;;8.31;78.69
72855;BME280;60991;51.278;22.550;2024-03-06T01:31:43;99285.91;;;8.24;78.22
72855;BME280;60991;51.278;22.550;2024-03-06T01:33:13;99280.72;;;8.18;78.63
72855;BME280;60991;51.278;22.550;2024-03-06T01:34:44;99276.56;;;8.10;78.92
72855;BME280;60991;51.278;22.550;2024-03-06T01:36:14;99279.69;;;8.19;78.89
72855;BME280;60991;51.278;22.550;2024-03-06T01:37:44;99285.56;;;8.21;78.45
72855;BME280;60991;51.278;22.550;2024-03-06T01:39:15;99291.44;;;8.23;78.42
72855;BME280;60991;51.278;22.550;2024-03-06T01:40:45;99286.59;;;8.20;78.64
72855;BME280;60991;51.278;22.550;2024-03-06T01:42:17;99286.94;;;8.23;78.27
72855;BME280;60991;51.278;22.550;2024-03-06T01:43:47;99289.00;;;8.21;78.70
72855;BME280;60991;51.278;22.550;2024-03-06T01:45:17;99289.16;;;8.26;77.90
72855;BME280;60991;51.278;22.550;2024-03-06T01:46:48;99290.53;;;8.29;77.70
72855;BME280;60991;51.278;22.550;2024-03-06T01:48:21;99292.38;;;8.28;77.81
72855;BME280;60991;51.278;22.550;2024-03-06T01:49:53;99288.13;;;8.27;77.67
72855;BME280;60991;51.278;22.550;2024-03-06T01:51:23;99285.91;;;8.24;78.05
72855;BME280;60991;51.278;22.550;2024-03-06T01:52:53;99286.34;;;8.21;78.19
72855;BME280;60991;51.278;22.550;2024-03-06T01:54:24;99295.66;;;8.12;78.29
72855;BME280;60991;51.278;22.550;2024-03-06T01:55:55;99292.78;;;8.14;78.25
72855;BME280;60991;51.278;22.550;2024-03-06T01:57:25;99286.31;;;8.10;78.74
72855;BME280;60991;51.278;22.550;2024-03-06T01:58:56;99288.38;;;8.08;77.91
72855;BME280;60991;51.278;22.550;2024-03-06T02:00:27;99284.78;;;8.02;77.84
72855;BME280;60991;51.278;22.550;2024-03-06T02:01:58;99288.00;;;8.04;78.52
72855;BME280;60991;51.278;22.550;2024-03-06T02:03:29;99286.63;;;8.02;78.33
72855;BME280;60991;51.278;22.550;2024-03-06T02:04:59;99295.56;;;8.00;78.50
72855;BME280;60991;51.278;22.550;2024-03-06T02:06:30;99289.38;;;7.95;78.31
72855;BME280;60991;51.278;22.550;2024-03-06T02:08:00;99294.53;;;8.02;78.09
72855;BME280;60991;51.278;22.550;2024-03-06T02:09:30;99286.75;;;8.07;78.12
72855;BME280;60991;51.278;22.550;2024-03-06T02:11:01;99294.53;;;8.02;78.11
72855;BME280;60991;51.278;22.550;2024-03-06T02:12:31;99292.94;;;8.00;78.20
72855;BME280;60991;51.278;22.550;2024-03-06T02:14:01;99296.59;;;7.99;77.77
72855;BME280;60991;51.278;22.550;2024-03-06T02:15:32;99294.44;;;7.96;77.65
72855;BME280;60991;51.278;22.550;2024-03-06T02:17:02;99295.53;;;7.89;78.03
72855;BME280;60991;51.278;22.550;2024-03-06T02:18:32;99295.78;;;7.99;78.49
72855;BME280;60991;51.278;22.550;2024-03-06T02:20:03;99298.44;;;7.99;78.19
72855;BME280;60991;51.278;22.550;2024-03-06T02:21:33;99292.72;;;8.02;77.33
72855;BME280;60991;51.278;22.550;2024-03-06T02:23:03;99298.81;;;8.03;77.52
72855;BME280;60991;51.278;22.550;2024-03-06T02:24:34;99303.50;;;8.00;77.79
72855;BME280;60991;51.278;22.550;2024-03-06T02:26:05;99299.72;;;7.96;78.05
72855;BME280;60991;51.278;22.550;2024-03-06T02:27:35;99298.69;;;7.97;77.63
72855;BME280;60991;51.278;22.550;2024-03-06T02:29:06;99297.63;;;7.98;77.91
72855;BME280;60991;51.278;22.550;2024-03-06T02:30:36;99294.44;;;7.96;77.53
72855;BME280;60991;51.278;22.550;2024-03-06T02:32:06;99296.56;;;7.88;77.97
72855;BME280;60991;51.278;22.550;2024-03-06T02:33:36;99299.84;;;7.83;78.19
72855;BME280;60991;51.278;22.550;2024-03-06T02:35:07;99302.13;;;7.80;77.88
72855;BME280;60991;51.278;22.550;2024-03-06T02:36:37;99299.41;;;7.86;77.69
72855;BME280;60991;51.278;22.550;2024-03-06T02:38:07;99303.41;;;7.77;78.05
72855;BME280;60991;51.278;22.550;2024-03-06T02:39:38;99305.03;;;7.78;78.40
72855;BME280;60991;51.278;22.550;2024-03-06T02:41:09;99304.13;;;7.84;77.57
72855;BME280;60991;51.278;22.550;2024-03-06T02:42:39;99303.38;;;7.95;77.14
72855;BME280;60991;51.278;22.550;2024-03-06T02:44:09;99302.81;;;7.93;76.90
72855;BME280;60991;51.278;22.550;2024-03-06T02:45:39;99308.09;;;7.93;76.96
72855;BME280;60991;51.278;22.550;2024-03-06T02:47:10;99303.09;;;7.85;77.27
72855;BME280;60991;51.278;22.550;2024-03-06T02:48:40;99310.59;;;7.70;77.86
72855;BME280;60991;51.278;22.550;2024-03-06T02:50:10;99315.72;;;7.65;77.72
72855;BME280;60991;51.278;22.550;2024-03-06T02:51:40;99317.06;;;7.74;77.22
72855;BME280;60991;51.278;22.550;2024-03-06T02:53:11;99314.56;;;7.79;76.91
72855;BME280;60991;51.278;22.550;2024-03-06T02:54:41;99317.13;;;7.68;77.27
72855;BME280;60991;51.278;22.550;2024-03-06T02:56:18;99315.66;;;7.72;77.44
72855;BME280;60991;51.278;22.550;2024-03-06T02:57:49;99314.84;;;7.71;77.63
72855;BME280;60991;51.278;22.550;2024-03-06T02:59:19;99319.59;;;7.62;76.82
72855;BME280;60991;51.278;22.550;2024-03-06T03:00:49;99311.81;;;7.49;77.69
72855;BME280;60991;51.278;22.550;2024-03-06T03:02:19;99316.09;;;7.50;77.69
72855;BME280;60991;51.278;22.550;2024-03-06T03:03:50;99314.09;;;7.46;77.40
72855;BME280;60991;51.278;22.550;2024-03-06T03:05:20;99315.91;;;7.45;77.81
72855;BME280;60991;51.278;22.550;2024-03-06T03:06:50;99317.03;;;7.56;77.32
72855;BME280;60991;51.278;22.550;2024-03-06T03:08:20;99323.72;;;7.58;77.02
72855;BME280;60991;51.278;22.550;2024-03-06T03:09:50;99319.47;;;7.57;76.87
72855;BME280;60991;51.278;22.550;2024-03-06T03:11:21;99322.91;;;7.58;76.75
72855;BME280;60991;51.278;22.550;2024-03-06T03:12:51;99323.56;;;7.53;76.75
72855;BME280;60991;51.278;22.550;2024-03-06T03:14:21;99324.06;;;7.44;77.25
72855;BME280;60991;51.278;22.550;2024-03-06T03:15:52;99323.34;;;7.37;76.83
72855;BME280;60991;51.278;22.550;2024-03-06T03:17:22;99331.84;;;7.39;78.02
72855;BME280;60991;51.278;22.550;2024-03-06T03:18:52;99333.97;;;7.48;77.05
72855;BME280;60991;51.278;22.550;2024-03-06T03:20:22;99324.66;;;7.46;77.10
72855;BME280;60991;51.278;22.550;2024-03-06T03:21:53;99334.78;;;7.49;77.21
72855;BME280;60991;51.278;22.550;2024-03-06T03:23:23;99334.78;;;7.49;77.19
72855;BME280;60991;51.278;22.550;2024-03-06T03:24:53;99329.00;;;7.40;77.15
72855;BME280;60991;51.278;22.550;2024-03-06T03:26:23;99332.44;;;7.41;77.95
72855;BME280;60991;51.278;22.550;2024-03-06T03:27:54;99332.56;;;7.46;76.91
72855;BME280;60991;51.278;22.550;2024-03-06T03:29:24;99333.53;;;7.51;76.27
72855;BME280;60991;51.278;22.550;2024-03-06T03:30:54;99335.31;;;7.57;76.79
72855;BME280;60991;51.278;22.550;2024-03-06T03:32:25;99331.06;;;7.56;76.67
72855;BME280;60991;51.278;22.550;2024-03-06T03:33:55;99331.94;;;7.50;76.74
72855;BME280;60991;51.278;22.550;2024-03-06T03:35:25;99334.78;;;7.49;77.14
72855;BME280;60991;51.278;22.550;2024-03-06T03:36:55;99330.91;;;7.51;76.82
72855;BME280;60991;51.278;22.550;2024-03-06T03:38:26;99334.72;;;7.55;76.82
72855;BME280;60991;51.278;22.550;2024-03-06T03:39:56;99331.94;;;7.50;77.00
72855;BME280;60991;51.278;22.550;2024-03-06T03:41:26;99338.16;;;7.38;77.64
72855;BME280;60991;51.278;22.550;2024-03-06T03:42:56;99332.53;;;7.27;77.47
72855;BME280;60991;51.278;22.550;2024-03-06T03:44:27;99341.19;;;7.16;78.21
72855;BME280;60991;51.278;22.550;2024-03-06T03:45:57;99350.28;;;7.20;77.79
72855;BME280;60991;51.278;22.550;2024-03-06T03:47:27;99347.38;;;7.28;78.04
72855;BME280;60991;51.278;22.550;2024-03-06T03:48:57;99339.59;;;7.34;77.45
72855;BME280;60991;51.278;22.550;2024-03-06T03:50:28;99351.69;;;7.23;77.19
72855;BME280;60991;51.278;22.550;2024-03-06T03:51:58;99345.81;;;7.21;77.71
72855;BME280;60991;51.278;22.550;2024-03-06T03:53:29;99345.59;;;7.22;77.24
72855;BME280;60991;51.278;22.550;2024-03-06T03:54:59;99348.81;;;7.24;77.46
72855;BME280;60991;51.278;22.550;2024-03-06T03:56:29;99351.75;;;7.16;78.09
72855;BME280;60991;51.278;22.550;2024-03-06T03:58:00;99347.66;;;7.20;78.03
72855;BME280;60991;51.278;22.550;2024-03-06T03:59:30;99349.38;;;7.08;78.06
72855;BME280;60991;51.278;22.550;2024-03-06T04:01:00;99351.97;;;7.15;78.42
72855;BME280;60991;51.278;22.550;2024-03-06T04:02:30;99345.22;;;7.19;77.94
72855;BME280;60991;51.278;22.550;2024-03-06T04:04:01;99349.53;;;7.13;78.00
72855;BME280;60991;51.278;22.550;2024-03-06T04:05:31;99353.81;;;7.08;77.79
72855;BME280;60991;51.278;22.550;2024-03-06T04:07:01;99359.09;;;7.08;78.00
72855;BME280;60991;51.278;22.550;2024-03-06T04:08:31;99353.47;;;7.04;77.85
72855;BME280;60991;51.278;22.550;2024-03-06T04:10:02;99351.06;;;7.03;77.76
72855;BME280;60991;51.278;22.550;2024-03-06T04:11:33;99357.13;;;7.03;77.43
72855;BME280;60991;51.278;22.550;2024-03-06T04:13:03;99352.72;;;6.97;77.52
72855;BME280;60991;51.278;22.550;2024-03-06T04:14:33;99358.44;;;6.87;77.62
72855;BME280;60991;51.278;22.550;2024-03-06T04:16:04;99356.91;;;6.80;78.09
72855;BME280;60991;51.278;22.550;2024-03-06T04:17:35;99362.16;;;6.80;78.03
72855;BME280;60991;51.278;22.550;2024-03-06T04:19:05;99357.28;;;6.83;78.06
72855;BME280;60991;51.278;22.550;2024-03-06T04:20:35;99360.25;;;6.93;77.54
72855;BME280;60991;51.278;22.550;2024-03-06T04:22:05;99356.31;;;7.03;76.94
72855;BME280;60991;51.278;22.550;2024-03-06T04:23:36;99361.53;;;7.09;76.94
72855;BME280;60991;51.278;22.550;2024-03-06T04:25:06;99353.81;;;7.08;76.63
72855;BME280;60991;51.278;22.550;2024-03-06T04:26:36;99355.66;;;7.07;77.19
72855;BME280;60991;51.278;22.550;2024-03-06T04:28:07;99360.69;;;7.15;76.90
72855;BME280;60991;51.278;22.550;2024-03-06T04:29:37;99358.63;;;7.17;76.63
72855;BME280;60991;51.278;22.550;2024-03-06T04:31:07;99362.69;;;7.20;76.60
72855;BME280;60991;51.278;22.550;2024-03-06T04:32:38;99364.91;;;7.23;75.87
72855;BME280;60991;51.278;22.550;2024-03-06T04:34:08;99363.06;;;7.23;76.04
72855;BME280;60991;51.278;22.550;2024-03-06T04:35:38;99365.13;;;7.21;76.34
72855;BME280;60991;51.278;22.550;2024-03-06T04:37:08;99367.00;;;7.14;75.80
72855;BME280;60991;51.278;22.550;2024-03-06T04:38:38;99369.63;;;7.14;76.28
72855;BME280;60991;51.278;22.550;2024-03-06T04:40:09;99367.47;;;7.05;76.19
72855;BME280;60991;51.278;22.550;2024-03-06T04:41:39;99364.25;;;7.03;75.48
72855;BME280;60991;51.278;22.550;2024-03-06T04:43:10;99365.41;;;7.07;75.84
72855;BME280;60991;51.278;22.550;2024-03-06T04:44:40;99360.59;;;7.04;76.30
72855;BME280;60991;51.278;22.550;2024-03-06T04:46:13;99372.75;;;7.05;75.79
72855;BME280;60991;51.278;22.550;2024-03-06T04:47:43;99366.22;;;7.07;76.37
72855;BME280;60991;51.278;22.550;2024-03-06T04:49:13;99367.56;;;6.91;76.18
72855;BME280;60991;51.278;22.550;2024-03-06T04:50:44;99366.38;;;6.87;76.02
72855;BME280;60991;51.278;22.550;2024-03-06T04:52:14;99370.38;;;6.97;75.58
72855;BME280;60991;51.278;22.550;2024-03-06T04:53:45;99371.78;;;6.99;75.53
72855;BME280;60991;51.278;22.550;2024-03-06T04:55:15;99372.38;;;7.01;75.86
72855;BME280;60991;51.278;22.550;2024-03-06T04:56:45;99370.75;;;7.00;75.52
72855;BME280;60991;51.278;22.550;2024-03-06T04:58:16;99379.91;;;6.98;75.74
72855;BME280;60991;51.278;22.550;2024-03-06T04:59:46;99374.94;;;6.83;75.55
72855;BME280;60991;51.278;22.550;2024-03-06T05:01:16;99383.28;;;6.80;75.70
72855;BME280;60991;51.278;22.550;2024-03-06T05:02:46;99379.03;;;6.79;75.37
72855;BME280;60991;51.278;22.550;2024-03-06T05:04:17;99378.84;;;6.74;76.01
72855;BME280;60991;51.278;22.550;2024-03-06T05:05:47;99381.09;;;6.70;76.04
72855;BME280;60991;51.278;22.550;2024-03-06T05:07:17;99380.47;;;6.75;75.58
72855;BME280;60991;51.278;22.550;2024-03-06T05:08:47;99386.81;;;6.67;76.09
72855;BME280;60991;51.278;22.550;2024-03-06T05:10:18;99386.94;;;6.79;75.76
72855;BME280;60991;51.278;22.550;2024-03-06T05:11:48;99383.28;;;6.80;75.07
72855;BME280;60991;51.278;22.550;2024-03-06T05:13:18;99392.44;;;6.71;76.16
72855;BME280;60991;51.278;22.550;2024-03-06T05:14:49;99392.72;;;6.63;76.24
72855;BME280;60991;51.278;22.550;2024-03-06T05:16:19;99387.25;;;6.57;76.77
72855;BME280;60991;51.278;22.550;2024-03-06T05:17:50;99396.41;;;6.55;76.37
72855;BME280;60991;51.278;22.550;2024-03-06T05:19:20;99388.88;;;6.58;76.34
72855;BME280;60991;51.278;22.550;2024-03-06T05:20:50;99383.59;;;6.58;76.62
72855;BME280;60991;51.278;22.550;2024-03-06T05:22:20;99393.09;;;6.66;76.26
72855;BME280;60991;51.278;22.550;2024-03-06T05:23:50;99391.31;;;6.60;76.90
72855;BME280;60991;51.278;22.550;2024-03-06T05:25:21;99394.94;;;6.66;76.23
72855;BME280;60991;51.278;22.550;2024-03-06T05:26:51;99394.53;;;6.62;75.75
72855;BME280;60991;51.278;22.550;2024-03-06T05:28:21;99385.81;;;6.62;76.08
72855;BME280;60991;51.278;22.550;2024-03-06T05:29:52;99395.16;;;6.64;76.53
72855;BME280;60991;51.278;22.550;2024-03-06T05:31:22;99397.38;;;6.67;75.50
72855;BME280;60991;51.278;22.550;2024-03-06T05:32:52;99395.47;;;6.74;75.91
72855;BME280;60991;51.278;22.550;2024-03-06T05:34:22;99398.28;;;6.79;75.93
72855;BME280;60991;51.278;22.550;2024-03-06T05:35:53;99392.81;;;6.81;75.75
72855;BME280;60991;51.278;22.550;2024-03-06T05:37:23;99392.41;;;6.77;76.13
72855;BME280;60991;51.278;22.550;2024-03-06T05:38:53;99396.88;;;6.77;75.38
72855;BME280;60991;51.278;22.550;2024-03-06T05:40:23;99396.44;;;6.86;75.70
72855;BME280;60991;51.278;22.550;2024-03-06T05:41:55;99395.34;;;6.94;75.55
72855;BME280;60991;51.278;22.550;2024-03-06T05:43:25;99396.84;;;6.83;75.71
72855;BME280;60991;51.278;22.550;2024-03-06T05:44:56;99397.88;;;6.82;75.68
72855;BME280;60991;51.278;22.550;2024-03-06T05:46:26;99401.34;;;6.76;75.46
72855;BME280;60991;51.278;22.550;2024-03-06T05:47:56;99401.97;;;6.72;75.40
72855;BME280;60991;51.278;22.550;2024-03-06T05:49:27;99404.63;;;6.72;76.11
72855;BME280;60991;51.278;22.550;2024-03-06T05:50:57;99409.28;;;6.70;76.14
72855;BME280;60991;51.278;22.550;2024-03-06T05:52:28;99410.88;;;6.77;75.37
72855;BME280;60991;51.278;22.550;2024-03-06T05:53:58;99411.94;;;6.70;75.97
72855;BME280;60991;51.278;22.550;2024-03-06T05:55:28;99401.38;;;6.70;76.12
72855;BME280;60991;51.278;22.550;2024-03-06T05:56:58;99419.28;;;6.68;76.07
72855;BME280;60991;51.278;22.550;2024-03-06T05:58:29;99413.44;;;6.52;76.09
72855;BME280;60991;51.278;22.550;2024-03-06T05:59:59;99418.75;;;6.46;76.65
72855;BME280;60991;51.278;22.550;2024-03-06T06:01:29;99426.41;;;6.54;76.38
72855;BME280;60991;51.278;22.550;2024-03-06T06:02:59;99426.19;;;6.62;76.47
72855;BME280;60991;51.278;22.550;2024-03-06T06:04:29;99426.41;;;6.60;76.23
72855;BME280;60991;51.278;22.550;2024-03-06T06:06:00;99426.41;;;6.60;76.14
72855;BME280;60991;51.278;22.550;2024-03-06T06:07:30;99441.63;;;6.52;76.41
72855;BME280;60991;51.278;22.550;2024-03-06T06:09:00;99428.44;;;6.52;76.87
72855;BME280;60991;51.278;22.550;2024-03-06T06:10:31;99427.44;;;6.53;76.43
72855;BME280;60991;51.278;22.550;2024-03-06T06:12:01;99427.66;;;6.51;76.80
72855;BME280;60991;51.278;22.550;2024-03-06T06:13:31;99438.78;;;6.53;76.56
72855;BME280;60991;51.278;22.550;2024-03-06T06:15:01;99434.91;;;6.63;76.40
72855;BME280;60991;51.278;22.550;2024-03-06T06:16:39;99436.34;;;6.58;76.46
72855;BME280;60991;51.278;22.550;2024-03-06T06:18:09;99438.50;;;6.68;76.04
72855;BME280;60991;51.278;22.550;2024-03-06T06:19:42;99431.06;;;6.65;76.03
72855;BME280;60991;51.278;22.550;2024-03-06T06:21:12;99439.97;;;6.64;75.84
72855;BME280;60991;51.278;22.550;2024-03-06T06:22:42;99439.16;;;6.64;76.17
72855;BME280;60991;51.278;22.550;2024-03-06T06:24:13;99432.28;;;6.63;76.43
72855;BME280;60991;51.278;22.550;2024-03-06T06:25:43;99438.09;;;6.71;75.66
72855;BME280;60991;51.278;22.550;2024-03-06T06:27:13;99433.91;;;6.64;76.01
72855;BME280;60991;51.278;22.550;2024-03-06T06:28:44;99436.69;;;6.69;76.06
72855;BME280;60991;51.278;22.550;2024-03-06T06:30:14;99432.47;;;6.61;76.21
72855;BME280;60991;51.278;22.550;2024-03-06T06:31:44;99433.31;;;6.55;76.52
72855;BME280;60991;51.278;22.550;2024-03-06T06:33:14;99439.19;;;6.57;76.29
72855;BME280;60991;51.278;22.550;2024-03-06T06:34:45;99438.78;;;6.53;76.71
72855;BME280;60991;51.278;22.550;2024-03-06T06:36:15;99436.75;;;6.55;76.57
72855;BME280;60991;51.278;22.550;2024-03-06T06:37:45;99445.28;;;6.51;76.72
72855;BME280;60991;51.278;22.550;2024-03-06T06:39:15;99438.41;;;6.50;76.86
72855;BME280;60991;51.278;22.550;2024-03-06T06:40:45;99451.03;;;6.41;77.22
72855;BME280;60991;51.278;22.550;2024-03-06T06:42:16;99450.63;;;6.38;77.57
72855;BME280;60991;51.278;22.550;2024-03-06T06:43:46;99448.38;;;6.48;76.51
72855;BME280;60991;51.278;22.550;2024-03-06T06:45:17;99442.25;;;6.54;76.93
72855;BME280;60991;51.278;22.550;2024-03-06T06:46:47;99446.44;;;6.68;76.44
72855;BME280;60991;51.278;22.550;2024-03-06T06:48:18;99446.28;;;6.63;76.21
72855;BME280;60991;51.278;22.550;2024-03-06T06:49:48;99446.28;;;6.63;76.54
72855;BME280;60991;51.278;22.550;2024-03-06T06:51:18;99442.81;;;6.63;76.12
72855;BME280;60991;51.278;22.550;2024-03-06T06:52:48;99449.94;;;6.55;76.49
72855;BME280;60991;51.278;22.550;2024-03-06T06:54:19;99445.91;;;6.53;76.83
72855;BME280;60991;51.278;22.550;2024-03-06T06:55:49;99454.00;;;6.51;76.86
72855;BME280;60991;51.278;22.550;2024-03-06T06:57:19;99461.09;;;6.64;76.11
72855;BME280;60991;51.278;22.550;2024-03-06T06:58:49;99456.84;;;6.56;76.17
72855;BME280;60991;51.278;22.550;2024-03-06T07:00:20;99461.72;;;6.59;76.69
72855;BME280;60991;51.278;22.550;2024-03-06T07:01:50;99455.63;;;6.52;76.87
72855;BME280;60991;51.278;22.550;2024-03-06T07:03:20;99467.59;;;6.55;76.25
72855;BME280;60991;51.278;22.550;2024-03-06T07:04:51;99468.19;;;6.57;76.35
72855;BME280;60991;51.278;22.550;2024-03-06T07:06:21;99474.28;;;6.57;76.40
72855;BME280;60991;51.278;22.550;2024-03-06T07:07:52;99469.63;;;6.59;76.33
72855;BME280;60991;51.278;22.550;2024-03-06T07:09:22;99470.78;;;6.70;76.31
72855;BME280;60991;51.278;22.550;2024-03-06T07:10:52;99469.59;;;6.66;76.50
72855;BME280;60991;51.278;22.550;2024-03-06T07:12:24;99480.31;;;6.71;76.03
72855;BME280;60991;51.278;22.550;2024-03-06T07:13:54;99475.69;;;6.67;75.91
72855;BME280;60991;51.278;22.550;2024-03-06T07:15:24;99478.75;;;6.57;76.20
72855;BME280;60991;51.278;22.550;2024-03-06T07:16:54;99481.19;;;6.52;76.33
72855;BME280;60991;51.278;22.550;2024-03-06T07:18:25;99473.50;;;6.50;76.18
72855;BME280;60991;51.278;22.550;2024-03-06T07:19:55;99477.78;;;6.45;76.62
72855;BME280;60991;51.278;22.550;2024-03-06T07:21:25;99480.84;;;6.42;76.89
72855;BME280;60991;51.278;22.550;2024-03-06T07:22:55;99479.41;;;6.46;76.64
72855;BME280;60991;51.278;22.550;2024-03-06T07:24:26;99480.81;;;6.48;77.12
72855;BME280;60991;51.278;22.550;2024-03-06T07:25:56;99488.88;;;6.60;76.19
72855;BME280;60991;51.278;22.550;2024-03-06T07:27:26;99486.03;;;6.62;76.13
72855;BME280;60991;51.278;22.550;2024-03-06T07:28:56;99484.00;;;6.64;76.26
72855;BME280;60991;51.278;22.550;2024-03-06T07:30:27;99491.72;;;6.58;76.38
72855;BME280;60991;51.278;22.550;2024-03-06T07:31:58;99487.66;;;6.63;76.04
72855;BME280;60991;51.278;22.550;2024-03-06T07:33:28;99490.69;;;6.66;76.86
72855;BME280;60991;51.278;22.550;2024-03-06T07:34:58;99499.44;;;6.60;77.01
72855;BME280;60991;51.278;22.550;2024-03-06T07:36:28;99498.97;;;6.70;76.88
72855;BME280;60991;51.278;22.550;2024-03-06T07:37:59;99499.19;;;6.68;76.61
72855;BME280;60991;51.278;22.550;2024-03-06T07:39:29;99498.22;;;6.63;75.99
72855;BME280;60991;51.278;22.550;2024-03-06T07:40:59;99494.78;;;6.55;76.64
72855;BME280;60991;51.278;22.550;2024-03-06T07:42:29;99499.28;;;6.48;77.09
72855;BME280;60991;51.278;22.550;2024-03-06T07:44:00;99498.28;;;6.49;77.32
72855;BME280;60991;51.278;22.550;2024-03-06T07:45:30;99502.09;;;6.53;76.97
72855;BME280;60991;51.278;22.550;2024-03-06T07:47:00;99502.06;;;6.60;76.47
72855;BME280;60991;51.278;22.550;2024-03-06T07:48:30;99505.53;;;6.54;76.60
72855;BME280;60991;51.278;22.550;2024-03-06T07:50:00;99503.72;;;6.54;76.35
72855;BME280;60991;51.278;22.550;2024-03-06T07:51:31;99508.16;;;6.67;76.21
72855;BME280;60991;51.278;22.550;2024-03-06T07:53:02;99508.72;;;6.69;75.84
72855;BME280;60991;51.278;22.550;2024-03-06T07:54:32;99516.22;;;6.72;76.55
72855;BME280;60991;51.278;22.550;2024-03-06T07:56:05;99510.94;;;6.72;76.43
72855;BME280;60991;51.278;22.550;2024-03-06T07:57:35;99508.50;;;6.77;76.49
72855;BME280;60991;51.278;22.550;2024-03-06T07:59:05;99513.97;;;6.76;76.05